Riverhead, NY (11901)

3:16 AM EDT on September 02, 2015 (GMT -0400)
Willow Ponds on the Sound | | Change Station
CLOSE
Current Station
Personal Weather Station
Location: Riverhead, NY
Elevation: 36 ft
Nearby Weather Stations

Elev 36 ft 40.98 °N, 72.69 °W | Updated 1 minute ago

Fog
Fog
68.2 °F
Feels Like 68.2 °F
N
0.0
Wind Variable Wind from South
Gusts 2.0 mph

Today
High -- | Low -- °F
--% Chance of Precip.
Yesterday
High -- | Low -- °F
Precip. -- in
6:18 AM 7:21 PM
Waning Gibbous, 82% visible
Pressure 30.06 in
Visibility 0.2 miles
Clouds
Dew Point 66 °F
Humidity 94%
Rainfall 0.00 in
Snow Depth Not available.
UV Not available.
Pollen 9.50 out of 12
Air Quality Not available.
Flu Activity Not available.
METAR KFOK 020653Z AUTO 00000KT M1/4SM FG VV001 16/15 A3006 RMK AO2 SLP177 T01610150 TSNO
Pressure 30.06 in
Visibility 0.2 miles
Clouds
Dew Point 66 °F
Humidity 94%
Rainfall 0.00 in
Snow Depth Not available.
UV Not available.
Pollen 9.50 out of 12
Air Quality Not available.
Flu Activity Not available.
METAR KFOK 020653Z AUTO 00000KT M1/4SM FG VV001 16/15 A3006 RMK AO2 SLP177 T01610150 TSNO

10-Day Weather Forecast

×

Almanac

Astronomy

Sep. 02, 2015 Rise Set
Actual Time
Civil Twilight
Nautical Twilight
Astronomical Twilight
Moon
Length of Visible Light
Length of Day
Tomorrow will be .
, % of the Moon is Illuminated

Today's Extremes

State Highs State Lows

Community

WunderPhotos

Upload Photos

1,851,721 photos uploaded!

WunderBlogs® & News

Nearby

Air Quality

  Air Quality AQ Index Pollutant
Not available.

Snow Depth

Station Depth Elevation

Earthquake Activity

City Distance Mag. Time & Date
Minimum magnitude displayed is 2.5.

Coastal Water Temperatures

Place Temperature

Stations

Nearby Weather Stations

Station Location Temp. Windchill Dew Point Humidity Wind Precip. Elev Updated Type